Time;durP1;ratioP1;P1;durP2;ratioP2;P2;SDS_P1;SDS_P2;PMS_P1;PMS_P2;Temp;Humidity;BMP_temperature;BMP_pressure;BME280_temperature;BME280_humidity;BME280_pressure;Samples;Min_cycle;Max_cycle;Signal;HPM_P1;HPM_P2
2021/10/06 00:00:59;;;;;;;4.03;3.50;;;14.10;99.90;;;;;;6302107;22;20018;-78
2021/10/06 00:03:24;;;;;;;4.55;4.15;;;14.20;99.90;;;;;;6300495;22;20027;-77
2021/10/06 00:05:50;;;;;;;4.38;3.60;;;14.20;99.90;;;;;;6301518;22;20002;-77
2021/10/06 00:08:15;;;;;;;5.75;3.08;;;14.20;99.90;;;;;;6301364;22;20003;-77
2021/10/06 00:10:41;;;;;;;6.65;3.40;;;14.20;99.90;;;;;;6299958;22;20011;-76
2021/10/06 00:13:06;;;;;;;4.88;3.63;;;14.30;99.90;;;;;;6302617;22;20465;-77
2021/10/06 00:15:31;;;;;;;3.42;3.00;;;14.30;99.90;;;;;;6300360;22;20011;-76
2021/10/06 00:17:57;;;;;;;5.72;3.28;;;14.30;99.90;;;;;;6302024;22;20001;-76
2021/10/06 00:20:22;;;;;;;4.05;3.45;;;14.40;99.90;;;;;;6274162;22;20031;-77
2021/10/06 00:22:48;;;;;;;4.47;2.80;;;14.40;99.90;;;;;;6301886;22;20612;-76
2021/10/06 00:25:13;;;;;;;3.65;3.03;;;14.40;99.90;;;;;;6303140;22;20052;-76
2021/10/06 00:27:39;;;;;;;3.53;2.95;;;14.40;99.90;;;;;;6274051;22;20011;-78
2021/10/06 00:30:05;;;;;;;3.45;3.10;;;14.50;99.90;;;;;;6302419;22;20042;-78
2021/10/06 00:32:30;;;;;;;4.15;2.85;;;14.50;99.90;;;;;;6301984;22;20003;-77
2021/10/06 00:34:56;;;;;;;5.15;2.85;;;14.50;99.90;;;;;;6302147;22;19998;-79
2021/10/06 00:37:21;;;;;;;4.47;3.58;;;14.50;99.90;;;;;;6302637;22;20008;-77
2021/10/06 00:39:47;;;;;;;3.65;3.33;;;14.50;99.90;;;;;;6273454;22;20007;-77
2021/10/06 00:42:12;;;;;;;3.55;3.25;;;14.60;99.90;;;;;;6274658;22;20384;-78
2021/10/06 00:44:38;;;;;;;3.35;2.75;;;14.60;99.90;;;;;;6302779;22;19991;-77
2021/10/06 00:47:05;;;;;;;4.03;3.03;;;14.60;99.90;;;;;;6301893;22;20056;-77
2021/10/06 00:49:30;;;;;;;7.13;2.95;;;14.60;99.90;;;;;;6300950;22;20008;-77
2021/10/06 00:51:56;;;;;;;3.38;3.00;;;14.60;99.90;;;;;;6274710;22;20319;-77
2021/10/06 00:54:22;;;;;;;3.70;3.17;;;14.60;99.90;;;;;;6302094;22;20088;-78
2021/10/06 00:56:48;;;;;;;4.72;3.15;;;14.70;99.90;;;;;;6301480;22;20303;-78
2021/10/06 00:59:13;;;;;;;3.80;2.47;;;14.70;99.90;;;;;;6301243;22;20009;-76
2021/10/06 01:01:39;;;;;;;2.97;2.58;;;14.70;99.90;;;;;;6273462;22;20007;-77
2021/10/06 01:04:05;;;;;;;2.70;2.42;;;14.80;99.90;;;;;;6275251;22;19991;-77
2021/10/06 01:06:31;;;;;;;3.17;2.78;;;14.80;99.90;;;;;;6302156;22;20062;-77
2021/10/06 01:08:58;;;;;;;3.38;2.97;;;14.80;99.90;;;;;;6300330;22;20023;-78
2021/10/06 01:11:24;;;;;;;2.97;2.53;;;14.80;99.90;;;;;;6301456;22;20030;-77
2021/10/06 01:13:50;;;;;;;3.25;2.78;;;14.80;99.90;;;;;;6301032;22;20007;-78
2021/10/06 01:16:16;;;;;;;3.58;2.92;;;14.80;99.90;;;;;;6301250;22;20003;-78
2021/10/06 01:18:41;;;;;;;3.25;2.60;;;14.70;99.90;;;;;;6301041;22;20842;-77
2021/10/06 01:21:17;;;;;;;4.85;2.92;;;14.80;99.90;;;;;;6301416;22;20044;-77
2021/10/06 01:23:44;;;;;;;4.78;1.95;;;14.70;99.90;;;;;;6301219;22;20395;-77
2021/10/06 01:26:11;;;;;;;2.45;1.70;;;14.60;99.90;;;;;;6302495;22;20003;-78
2021/10/06 01:28:36;;;;;;;2.78;1.73;;;14.60;99.90;;;;;;6300380;22;20374;-76
2021/10/06 01:31:02;;;;;;;1.67;1.40;;;14.70;99.90;;;;;;6301433;22;20007;-76
2021/10/06 01:33:29;;;;;;;4.55;1.40;;;14.70;99.90;;;;;;6301573;22;20002;-78
2021/10/06 01:35:55;;;;;;;2.35;1.20;;;14.60;99.90;;;;;;6301284;22;20003;-78
2021/10/06 01:38:20;;;;;;;1.88;1.38;;;14.60;99.90;;;;;;6300829;22;20007;-77
2021/10/06 01:40:46;;;;;;;1.23;1.13;;;14.50;99.90;;;;;;6300568;22;20006;-77
2021/10/06 01:43:11;;;;;;;1.33;0.93;;;14.50;99.90;;;;;;6301661;22;20009;-77
2021/10/06 01:45:40;;;;;;;4.18;1.10;;;14.50;99.90;;;;;;6301799;22;20003;-77
2021/10/06 01:48:12;;;;;;;1.15;0.93;;;14.60;99.90;;;;;;6300537;22;20007;-77
2021/10/06 01:50:41;;;;;;;1.55;0.80;;;14.60;99.90;;;;;;6301071;22;20414;-77
2021/10/06 01:53:08;;;;;;;1.83;0.82;;;14.60;99.90;;;;;;6302311;22;20042;-76
2021/10/06 01:55:34;;;;;;;1.77;0.90;;;14.60;99.90;;;;;;6300950;22;19999;-77
2021/10/06 01:58:03;;;;;;;1.08;0.90;;;14.60;99.90;;;;;;6273376;22;20005;-77
2021/10/06 02:00:29;;;;;;;3.53;0.90;;;14.70;99.90;;;;;;6301721;22;20010;-77
2021/10/06 02:02:54;;;;;;;2.05;1.23;;;14.70;99.90;;;;;;6301002;22;19999;-78
2021/10/06 02:05:21;;;;;;;1.10;0.75;;;14.70;99.90;;;;;;6301248;22;20010;-79
2021/10/06 02:07:46;;;;;;;1.05;0.75;;;14.80;99.90;;;;;;6299671;22;20004;-77
2021/10/06 02:10:12;;;;;;;0.82;0.65;;;14.70;99.90;;;;;;6301868;22;20311;-77
2021/10/06 02:12:38;;;;;;;0.70;0.70;;;14.70;99.90;;;;;;6301823;22;19999;-78
2021/10/06 02:15:04;;;;;;;1.95;1.00;;;14.70;99.90;;;;;;6301495;22;20038;-77
2021/10/06 02:17:30;;;;;;;0.88;0.65;;;14.80;99.90;;;;;;6301538;22;19996;-76
2021/10/06 02:19:55;;;;;;;1.58;1.05;;;14.70;99.90;;;;;;6301090;22;20163;-77
2021/10/06 02:22:21;;;;;;;3.45;0.90;;;14.70;99.90;;;;;;6299192;22;20023;-77
2021/10/06 02:24:47;;;;;;;0.60;0.60;;;14.70;99.90;;;;;;6301383;22;20002;-77
2021/10/06 02:27:12;;;;;;;0.80;0.80;;;14.70;99.90;;;;;;6301455;22;20386;-77
2021/10/06 02:29:37;;;;;;;1.67;0.90;;;14.60;99.80;;;;;;6300158;22;20426;-78
2021/10/06 02:32:03;;;;;;;0.90;0.73;;;14.60;99.50;;;;;;6301613;22;19995;-78
2021/10/06 02:34:29;;;;;;;2.38;0.73;;;14.60;99.60;;;;;;6300787;22;20376;-78
2021/10/06 02:36:54;;;;;;;1.23;0.60;;;14.50;99.20;;;;;;6300767;22;19999;-78
2021/10/06 02:39:20;;;;;;;1.25;0.63;;;14.50;98.50;;;;;;6300363;22;20007;-78
2021/10/06 02:41:46;;;;;;;1.15;0.40;;;14.50;98.60;;;;;;6300501;22;20003;-78
2021/10/06 02:44:12;;;;;;;2.90;0.57;;;14.40;98.30;;;;;;6301614;22;20004;-78
2021/10/06 02:46:37;;;;;;;2.00;0.85;;;14.40;98.20;;;;;;6302013;22;20426;-78
2021/10/06 02:49:03;;;;;;;3.53;0.80;;;14.40;98.20;;;;;;6299916;22;20005;-79
2021/10/06 02:51:29;;;;;;;2.05;0.57;;;14.40;98.20;;;;;;6301783;22;20338;-78
2021/10/06 02:53:54;;;;;;;2.90;0.65;;;14.40;98.20;;;;;;6274486;22;20078;-79
2021/10/06 02:56:20;;;;;;;1.65;0.52;;;14.40;98.20;;;;;;6300959;22;20382;-79
2021/10/06 02:58:45;;;;;;;1.77;0.80;;;14.40;98.00;;;;;;6301179;22;20003;-79
2021/10/06 03:01:11;;;;;;;3.28;0.60;;;14.30;97.90;;;;;;6301444;22;20651;-77
2021/10/06 03:03:36;;;;;;;2.15;0.85;;;14.30;97.80;;;;;;6303207;22;19999;-77
2021/10/06 03:06:03;;;;;;;2.30;0.70;;;14.30;97.60;;;;;;6304015;22;20003;-77
2021/10/06 03:08:28;;;;;;;1.45;0.60;;;14.20;97.60;;;;;;6302234;22;20004;-77
2021/10/06 03:10:54;;;;;;;1.60;0.50;;;14.20;97.60;;;;;;6302816;22;20414;-76
2021/10/06 03:13:19;;;;;;;4.85;0.70;;;14.20;97.40;;;;;;6303781;22;19999;-77
2021/10/06 03:15:45;;;;;;;3.33;0.68;;;14.20;97.40;;;;;;6302703;22;20520;-77
2021/10/06 03:18:11;;;;;;;2.80;0.60;;;14.10;97.50;;;;;;6302589;22;20020;-77
2021/10/06 03:20:36;;;;;;;1.40;0.60;;;14.00;97.30;;;;;;6303347;22;20030;-77
2021/10/06 03:23:06;;;;;;;0.75;0.45;;;14.00;97.40;;;;;;6302587;22;19999;-77
2021/10/06 03:25:32;;;;;;;1.55;0.73;;;13.90;97.30;;;;;;6303431;22;20440;-77
2021/10/06 03:27:58;;;;;;;0.70;0.52;;;13.90;97.40;;;;;;6302589;22;20015;-77
2021/10/06 03:30:23;;;;;;;0.82;0.73;;;13.80;97.40;;;;;;6302982;22;20093;-77
2021/10/06 03:32:49;;;;;;;2.63;0.70;;;13.80;97.50;;;;;;6302795;22;20003;-76
2021/10/06 03:35:18;;;;;;;1.80;0.82;;;13.80;97.60;;;;;;6302743;22;20024;-78
2021/10/06 03:37:47;;;;;;;0.80;0.50;;;13.70;97.70;;;;;;6302215;22;20082;-77
2021/10/06 03:40:13;;;;;;;3.38;0.60;;;13.70;97.50;;;;;;6303246;22;20003;-77
2021/10/06 03:42:38;;;;;;;2.70;0.75;;;13.70;97.60;;;;;;6302938;22;20429;-76
2021/10/06 03:45:06;;;;;;;1.30;0.75;;;13.60;97.70;;;;;;6303678;22;20006;-77
2021/10/06 03:47:32;;;;;;;2.58;0.70;;;13.60;97.80;;;;;;6302399;22;20011;-77
2021/10/06 03:49:57;;;;;;;3.85;0.95;;;13.60;97.90;;;;;;6302484;22;20011;-76
2021/10/06 03:52:23;;;;;;;3.00;0.70;;;13.60;98.00;;;;;;6303113;22;19996;-78
2021/10/06 03:54:49;;;;;;;2.38;0.75;;;13.60;98.00;;;;;;6302741;22;20364;-76
2021/10/06 03:57:14;;;;;;;2.90;0.90;;;13.50;98.10;;;;;;6302999;22;20035;-78
2021/10/06 03:59:40;;;;;;;2.35;0.85;;;13.50;98.20;;;;;;6302061;22;20389;-77
2021/10/06 04:02:05;;;;;;;0.68;0.60;;;13.50;98.20;;;;;;6301734;22;20022;-78
2021/10/06 04:04:31;;;;;;;3.10;0.95;;;13.50;98.30;;;;;;6302972;22;20006;-76
2021/10/06 04:06:56;;;;;;;3.20;0.90;;;13.40;98.40;;;;;;6302927;22;20057;-76
2021/10/06 04:09:22;;;;;;;5.65;0.70;;;13.40;98.60;;;;;;6301431;22;20377;-76
2021/10/06 04:11:48;;;;;;;2.70;0.70;;;13.30;98.60;;;;;;6302692;22;19999;-75
2021/10/06 04:14:13;;;;;;;0.75;0.65;;;13.30;98.70;;;;;;6302664;22;20410;-76
2021/10/06 04:16:39;;;;;;;2.40;0.50;;;13.30;98.70;;;;;;6302547;22;20287;-77
2021/10/06 04:19:05;;;;;;;1.83;0.85;;;13.30;98.80;;;;;;6300580;22;19996;-78
2021/10/06 04:21:30;;;;;;;2.88;0.68;;;13.30;98.90;;;;;;6273789;22;20006;-77
2021/10/06 04:23:56;;;;;;;5.78;0.60;;;13.20;99.00;;;;;;6300967;22;20493;-78
2021/10/06 04:26:21;;;;;;;4.88;0.80;;;13.10;99.00;;;;;;6301813;22;20012;-77
2021/10/06 04:28:47;;;;;;;1.23;0.80;;;13.10;99.10;;;;;;6293375;22;20000;-79
2021/10/06 04:31:12;;;;;;;1.10;0.80;;;13.10;99.10;;;;;;6291326;22;20007;-78
2021/10/06 04:33:38;;;;;;;2.53;0.70;;;13.00;99.10;;;;;;6298583;22;20511;-78
2021/10/06 04:36:04;;;;;;;2.25;0.50;;;13.00;99.20;;;;;;6299991;22;20003;-79
2021/10/06 04:38:29;;;;;;;2.45;1.10;;;13.00;99.20;;;;;;6299257;22;20003;-75
2021/10/06 04:40:56;;;;;;;3.38;0.70;;;13.00;99.10;;;;;;6298527;22;20030;-77
2021/10/06 04:43:21;;;;;;;2.72;1.00;;;13.00;99.10;;;;;;6298491;22;20004;-77
2021/10/06 04:45:47;;;;;;;2.50;0.75;;;13.00;99.10;;;;;;6299835;22;20006;-77
2021/10/06 04:48:12;;;;;;;2.53;0.75;;;12.90;98.90;;;;;;6298996;22;19999;-77
2021/10/06 04:50:38;;;;;;;1.17;0.65;;;12.90;98.70;;;;;;6296636;22;20007;-79
2021/10/06 04:53:04;;;;;;;1.40;0.82;;;12.90;98.70;;;;;;6298680;22;20018;-79
2021/10/06 04:55:31;;;;;;;4.85;0.60;;;12.90;98.40;;;;;;6301139;22;19999;-87
2021/10/06 04:57:58;;;;;;;0.88;0.60;;;12.90;98.60;;;;;;6271670;22;20003;-78
2021/10/06 05:00:24;;;;;;;1.35;0.63;;;12.90;98.60;;;;;;6272014;22;20030;-78
2021/10/06 05:02:50;;;;;;;1.90;0.80;;;12.90;98.60;;;;;;6298400;22;20000;-78
2021/10/06 05:05:15;;;;;;;3.35;1.02;;;12.90;98.60;;;;;;6298167;22;20094;-79
2021/10/06 05:07:41;;;;;;;2.53;0.80;;;12.90;98.50;;;;;;6298674;22;20357;-78
2021/10/06 05:10:07;;;;;;;2.55;0.90;;;12.90;98.50;;;;;;6299110;22;20464;-79
2021/10/06 05:12:32;;;;;;;5.63;0.90;;;12.90;98.60;;;;;;6271633;22;20011;-76
2021/10/06 05:14:58;;;;;;;3.40;0.88;;;12.90;98.60;;;;;;6298886;22;20026;-77
2021/10/06 05:17:23;;;;;;;1.02;0.68;;;12.90;98.70;;;;;;6299818;22;20030;-77
2021/10/06 05:19:49;;;;;;;1.15;0.90;;;12.90;98.80;;;;;;6297768;22;20361;-77
2021/10/06 05:22:14;;;;;;;1.30;0.63;;;12.90;99.00;;;;;;6271320;22;20004;-77
2021/10/06 05:24:40;;;;;;;4.70;1.25;;;12.80;99.10;;;;;;6299396;22;20434;-78
2021/10/06 05:27:05;;;;;;;2.30;0.90;;;12.80;99.30;;;;;;6299906;22;20033;-77
2021/10/06 05:29:31;;;;;;;1.67;0.75;;;12.80;99.40;;;;;;6297183;22;20029;-76
2021/10/06 05:31:59;;;;;;;1.13;0.93;;;12.80;99.50;;;;;;6296409;22;20042;-78
2021/10/06 05:34:25;;;;;;;1.33;0.90;;;12.70;99.60;;;;;;6299078;22;20027;-78
2021/10/06 05:36:50;;;;;;;1.40;1.02;;;12.70;99.90;;;;;;6298962;22;20051;-77
2021/10/06 05:39:16;;;;;;;3.13;1.20;;;12.70;99.80;;;;;;6299275;22;20451;-78
2021/10/06 05:41:41;;;;;;;1.48;0.68;;;12.70;99.80;;;;;;6296366;22;20003;-77
2021/10/06 05:44:07;;;;;;;2.28;0.82;;;12.70;99.90;;;;;;6298674;22;20003;-78
2021/10/06 05:46:32;;;;;;;1.60;0.80;;;12.70;99.90;;;;;;6272525;22;20410;-78
2021/10/06 05:48:58;;;;;;;2.15;0.95;;;12.70;99.90;;;;;;6297752;22;19999;-78
2021/10/06 05:51:23;;;;;;;1.42;0.82;;;12.60;99.90;;;;;;6298747;22;20007;-78
2021/10/06 05:53:49;;;;;;;1.05;0.75;;;12.70;99.90;;;;;;6297858;22;19995;-77
2021/10/06 05:56:14;;;;;;;14.48;1.10;;;12.70;99.80;;;;;;6299514;22;20008;-77
2021/10/06 05:58:40;;;;;;;0.70;0.70;;;12.70;99.70;;;;;;6296734;22;20421;-79
2021/10/06 06:01:05;;;;;;;2.13;1.00;;;12.70;99.80;;;;;;6298865;22;20010;-77
2021/10/06 06:03:31;;;;;;;3.55;0.95;;;12.70;99.70;;;;;;6298841;22;20003;-77
2021/10/06 06:05:56;;;;;;;5.93;0.93;;;12.70;99.70;;;;;;6299610;22;20050;-78
2021/10/06 06:08:22;;;;;;;1.70;1.00;;;12.80;99.70;;;;;;6298272;22;20034;-78
2021/10/06 06:10:47;;;;;;;1.65;0.95;;;12.80;99.70;;;;;;6298677;22;20087;-78
2021/10/06 06:13:13;;;;;;;1.85;1.00;;;12.80;99.50;;;;;;6271564;22;20086;-78
2021/10/06 06:15:38;;;;;;;2.45;0.77;;;12.80;99.60;;;;;;6300490;22;20031;-78
2021/10/06 06:18:04;;;;;;;1.38;1.00;;;12.80;99.40;;;;;;6297748;22;20003;-79
2021/10/06 06:20:29;;;;;;;4.30;1.00;;;12.80;99.40;;;;;;6299827;22;20021;-78
2021/10/06 06:22:55;;;;;;;5.18;0.90;;;12.90;99.30;;;;;;6298182;22;19999;-77
2021/10/06 06:25:22;;;;;;;3.65;1.33;;;12.90;99.30;;;;;;6299928;22;20071;-78
2021/10/06 06:27:47;;;;;;;1.92;0.70;;;12.90;99.20;;;;;;6299862;22;20064;-77
2021/10/06 06:30:13;;;;;;;4.63;0.88;;;13.00;99.20;;;;;;6273370;22;20392;-78
2021/10/06 06:32:41;;;;;;;1.70;0.95;;;13.00;99.00;;;;;;6298913;22;20329;-77
2021/10/06 06:35:07;;;;;;;2.10;1.00;;;13.00;99.10;;;;;;6299621;22;20003;-77
2021/10/06 06:37:32;;;;;;;2.63;0.55;;;13.10;99.10;;;;;;6299707;22;20007;-78
2021/10/06 06:39:58;;;;;;;2.08;0.70;;;13.10;99.00;;;;;;6300809;22;20010;-76
2021/10/06 06:42:23;;;;;;;2.50;0.88;;;13.10;99.10;;;;;;6301236;22;20095;-76
2021/10/06 06:44:49;;;;;;;4.10;1.20;;;13.20;98.90;;;;;;6301184;22;20007;-77
2021/10/06 06:47:15;;;;;;;4.63;0.90;;;13.20;98.80;;;;;;6302924;22;20053;-77
2021/10/06 06:49:40;;;;;;;3.40;0.80;;;13.30;98.60;;;;;;6300135;22;20007;-78
2021/10/06 06:52:06;;;;;;;1.70;0.80;;;13.40;98.60;;;;;;6301152;22;20007;-78
2021/10/06 06:54:32;;;;;;;2.13;1.17;;;13.40;98.50;;;;;;6301640;22;20011;-78
2021/10/06 06:56:57;;;;;;;1.60;0.70;;;13.50;98.40;;;;;;6301963;22;20010;-78
2021/10/06 06:59:23;;;;;;;1.35;0.80;;;13.50;98.10;;;;;;6300714;22;20325;-78
2021/10/06 07:01:48;;;;;;;2.15;0.90;;;13.60;98.00;;;;;;6299820;22;20417;-79
2021/10/06 07:04:15;;;;;;;4.25;1.00;;;13.70;97.80;;;;;;6302002;22;20038;-79
2021/10/06 07:06:40;;;;;;;1.48;1.00;;;13.70;97.90;;;;;;6302094;22;19995;-79
2021/10/06 07:09:06;;;;;;;2.38;0.80;;;13.80;97.80;;;;;;6300968;22;20031;-78
2021/10/06 07:11:33;;;;;;;1.88;0.95;;;13.80;97.90;;;;;;6273904;22;20022;-79
2021/10/06 07:13:59;;;;;;;2.40;1.20;;;13.80;97.80;;;;;;6300437;22;20007;-76
2021/10/06 07:16:25;;;;;;;3.03;1.00;;;13.90;97.80;;;;;;6302084;22;20007;-78
2021/10/06 07:18:50;;;;;;;1.95;0.85;;;13.90;97.50;;;;;;6272497;22;20003;-77
2021/10/06 07:21:16;;;;;;;2.67;0.88;;;13.90;97.40;;;;;;6301432;22;20010;-77
2021/10/06 07:23:41;;;;;;;1.92;0.80;;;13.90;97.10;;;;;;6301224;22;20003;-77
2021/10/06 07:26:07;;;;;;;1.70;0.73;;;14.00;97.40;;;;;;6302525;22;20038;-78
2021/10/06 07:28:33;;;;;;;1.63;0.65;;;14.00;97.40;;;;;;6299215;22;19995;-77
2021/10/06 07:30:59;;;;;;;3.92;0.80;;;14.00;96.90;;;;;;6301153;22;19999;-77
2021/10/06 07:33:25;;;;;;;0.90;0.70;;;14.00;96.90;;;;;;6300837;22;20004;-77
2021/10/06 07:35:50;;;;;;;2.03;0.65;;;14.00;97.00;;;;;;6301202;22;20718;-78
2021/10/06 07:38:16;;;;;;;1.52;0.60;;;14.00;97.10;;;;;;6273603;22;20010;-78
2021/10/06 07:40:43;;;;;;;3.25;0.80;;;14.00;97.00;;;;;;6301514;22;20007;-78
2021/10/06 07:43:08;;;;;;;1.48;0.77;;;14.00;96.80;;;;;;6301512;22;19999;-78
2021/10/06 07:45:34;;;;;;;1.13;0.80;;;13.90;97.00;;;;;;6301306;22;20072;-78
2021/10/06 07:47:59;;;;;;;3.25;0.93;;;13.90;97.10;;;;;;6300655;22;20003;-78
2021/10/06 07:50:25;;;;;;;2.92;1.10;;;14.00;97.10;;;;;;6299128;22;20032;-78
2021/10/06 07:52:51;;;;;;;2.20;0.80;;;13.90;97.00;;;;;;6300988;22;20004;-78
2021/10/06 07:55:17;;;;;;;1.55;0.80;;;14.00;96.90;;;;;;6301047;22;20029;-78
2021/10/06 07:57:43;;;;;;;2.20;0.95;;;14.00;97.10;;;;;;6300065;22;20358;-77
2021/10/06 08:00:09;;;;;;;0.98;0.80;;;14.00;96.70;;;;;;6273690;22;19999;-79
2021/10/06 08:02:35;;;;;;;1.92;0.75;;;14.10;96.80;;;;;;6272833;22;20010;-78
2021/10/06 08:05:00;;;;;;;2.28;1.33;;;14.10;96.80;;;;;;6301442;22;19995;-77
2021/10/06 08:07:26;;;;;;;3.45;1.10;;;14.10;96.90;;;;;;6300272;22;20414;-77
2021/10/06 08:09:51;;;;;;;3.85;1.13;;;14.10;97.00;;;;;;6299536;22;20039;-78
2021/10/06 08:12:16;;;;;;;2.13;0.82;;;14.10;96.60;;;;;;6300061;22;20008;-78
2021/10/06 08:14:42;;;;;;;1.05;0.70;;;14.20;96.50;;;;;;6300035;22;20006;-77
2021/10/06 08:17:08;;;;;;;2.72;0.80;;;14.20;96.70;;;;;;6301628;22;20012;-76
2021/10/06 08:19:33;;;;;;;2.58;0.85;;;14.20;96.70;;;;;;6271879;22;20007;-78
2021/10/06 08:21:59;;;;;;;2.42;1.00;;;14.20;96.50;;;;;;6300791;22;20034;-77
2021/10/06 08:24:24;;;;;;;2.72;0.80;;;14.30;96.20;;;;;;6273412;22;19999;-77
2021/10/06 08:26:51;;;;;;;3.00;0.77;;;14.30;96.20;;;;;;6300291;22;20015;-77
2021/10/06 08:29:16;;;;;;;2.42;1.60;;;14.40;96.30;;;;;;6299949;22;20003;-77
2021/10/06 08:31:42;;;;;;;3.72;0.82;;;14.50;96.00;;;;;;6299518;22;20014;-78
2021/10/06 08:34:07;;;;;;;1.33;0.80;;;14.60;95.80;;;;;;6300154;22;20380;-77
2021/10/06 08:36:33;;;;;;;7.10;1.00;;;14.60;95.90;;;;;;6300922;22;20078;-78
2021/10/06 08:39:00;;;;;;;2.45;0.75;;;14.70;95.60;;;;;;6298277;22;20442;-77
2021/10/06 08:41:26;;;;;;;1.50;0.70;;;14.80;94.60;;;;;;6300021;22;20394;-78
2021/10/06 08:43:52;;;;;;;1.02;0.73;;;14.80;94.60;;;;;;6300292;22;20015;-78
2021/10/06 08:46:18;;;;;;;1.33;0.75;;;14.90;94.90;;;;;;6300705;22;20502;-77
2021/10/06 08:48:43;;;;;;;2.38;1.25;;;15.10;95.20;;;;;;6297739;22;20078;-79
2021/10/06 08:51:09;;;;;;;1.38;0.65;;;15.20;94.90;;;;;;6298320;22;20356;-79
2021/10/06 08:53:34;;;;;;;6.07;1.17;;;15.30;93.70;;;;;;6272679;22;20018;-78
2021/10/06 08:56:00;;;;;;;0.60;0.52;;;15.40;93.40;;;;;;6300704;22;20306;-79
2021/10/06 08:58:25;;;;;;;2.28;0.80;;;15.50;93.20;;;;;;6300227;22;20396;-78
2021/10/06 09:00:58;;;;;;;1.10;0.70;;;15.50;93.50;;;;;;6299553;22;20003;-79
2021/10/06 09:03:35;;;;;;;2.60;0.98;;;15.60;93.90;;;;;;6300546;22;19996;-79
2021/10/06 09:06:11;;;;;;;1.75;0.65;;;15.70;93.50;;;;;;6300774;22;20003;-78
2021/10/06 09:08:38;;;;;;;2.90;0.75;;;15.60;93.40;;;;;;6299864;22;20007;-82
2021/10/06 09:11:06;;;;;;;3.30;0.98;;;15.60;93.40;;;;;;6299533;22;20010;-78
2021/10/06 09:13:37;;;;;;;1.63;0.70;;;15.70;92.90;;;;;;6299808;22;20124;-79
2021/10/06 09:16:03;;;;;;;1.15;0.73;;;15.70;92.60;;;;;;6300620;22;20006;-78
2021/10/06 09:18:32;;;;;;;3.03;0.65;;;15.80;92.70;;;;;;6299850;22;20051;-78
2021/10/06 09:21:09;;;;;;;3.13;0.68;;;15.80;92.70;;;;;;6299428;22;20030;-78
2021/10/06 09:23:42;;;;;;;1.08;0.88;;;15.80;92.80;;;;;;6300362;22;20005;-78
2021/10/06 09:26:12;;;;;;;3.80;0.70;;;15.90;92.80;;;;;;6300409;22;20011;-80
2021/10/06 09:28:39;;;;;;;2.67;0.93;;;16.00;93.10;;;;;;6299586;22;20029;-78
2021/10/06 09:31:12;;;;;;;2.75;0.73;;;16.00;92.20;;;;;;6299503;22;20003;-77
2021/10/06 09:33:47;;;;;;;1.25;0.60;;;15.90;92.40;;;;;;6297970;22;20003;-78
2021/10/06 09:36:18;;;;;;;3.13;0.70;;;16.00;92.20;;;;;;6300291;22;20007;-79
2021/10/06 09:38:59;;;;;;;2.10;0.80;;;16.00;92.40;;;;;;6299042;22;19995;-78
2021/10/06 09:41:25;;;;;;;6.25;0.98;;;16.00;92.10;;;;;;6271846;22;20092;-78
2021/10/06 09:44:06;;;;;;;1.88;0.70;;;16.00;91.80;;;;;;6299295;22;20049;-77
2021/10/06 09:46:49;;;;;;;1.02;0.63;;;15.90;91.90;;;;;;6300209;22;20007;-78
2021/10/06 09:49:21;;;;;;;3.22;0.77;;;16.00;92.20;;;;;;6297356;22;20019;-77
2021/10/06 09:51:47;;;;;;;;;;;16.00;92.90;;;;;;6299148;22;20007;-78
2021/10/06 09:54:13;;;;;;;1.27;0.50;;;16.20;91.50;;;;;;6300452;22;20225;-80
2021/10/06 09:56:43;;;;;;;3.05;0.63;;;16.20;91.40;;;;;;6299561;22;19991;-78
2021/10/06 09:59:12;;;;;;;1.83;0.75;;;16.20;91.40;;;;;;6298646;22;20382;-77
2021/10/06 10:01:39;;;;;;;0.57;0.43;;;16.30;91.40;;;;;;6270940;22;20090;-79
2021/10/06 10:04:09;;;;;;;1.48;0.70;;;16.40;91.10;;;;;;6299924;22;20003;-79
2021/10/06 10:06:35;;;;;;;4.20;0.90;;;16.50;90.70;;;;;;6300848;22;20083;-78
2021/10/06 10:09:03;;;;;;;1.35;0.50;;;16.50;90.40;;;;;;6298189;22;20034;-79
2021/10/06 10:11:29;;;;;;;1.80;0.60;;;16.50;91.00;;;;;;6298198;22;20014;-79
2021/10/06 10:13:55;;;;;;;0.73;0.45;;;16.60;90.90;;;;;;6298922;22;20038;-79
2021/10/06 10:16:21;;;;;;;3.13;0.80;;;16.80;91.40;;;;;;6300094;22;20096;-79
2021/10/06 10:18:48;;;;;;;1.45;0.63;;;16.80;90.90;;;;;;6298098;22;20007;-78
2021/10/06 10:21:18;;;;;;;2.42;0.80;;;16.90;90.20;;;;;;6296683;22;20003;-78
2021/10/06 10:23:44;;;;;;;5.28;1.58;;;16.90;90.40;;;;;;6297669;22;19999;-79
2021/10/06 10:26:24;;;;;;;2.13;1.00;;;16.90;90.50;;;;;;6297266;22;20322;-78
2021/10/06 10:28:49;;;;;;;2.90;0.90;;;17.00;90.50;;;;;;6296650;22;20422;-79
2021/10/06 10:31:18;;;;;;;1.90;0.70;;;17.00;90.90;;;;;;6298778;22;20014;-78
2021/10/06 10:33:47;;;;;;;4.82;1.55;;;17.10;90.70;;;;;;6298350;22;20520;-78
2021/10/06 10:36:37;;;;;;;1.20;0.70;;;17.10;90.60;;;;;;6299399;22;19995;-77
2021/10/06 10:39:04;;;;;;;1.33;0.60;;;17.20;91.10;;;;;;6297426;22;20778;-78
2021/10/06 10:41:52;;;;;;;2.92;1.05;;;17.20;90.60;;;;;;6298604;22;19996;-78
2021/10/06 10:44:24;;;;;;;4.47;1.02;;;17.30;91.00;;;;;;6298817;22;19999;-77
2021/10/06 10:46:56;;;;;;;4.70;0.70;;;17.40;90.20;;;;;;6298515;22;20075;-77
2021/10/06 10:49:22;;;;;;;1.40;0.93;;;17.50;90.70;;;;;;6297632;22;20501;-77
2021/10/06 10:51:58;;;;;;;5.93;1.55;;;17.60;89.40;;;;;;6299244;22;20006;-78
2021/10/06 10:54:40;;;;;;;2.00;0.73;;;17.60;88.50;;;;;;6299898;22;20000;-78
2021/10/06 10:57:11;;;;;;;4.40;1.27;;;17.50;89.40;;;;;;6298937;22;20044;-78
2021/10/06 10:59:47;;;;;;;2.90;0.93;;;17.40;88.80;;;;;;6297518;22;20014;-77
2021/10/06 11:02:19;;;;;;;2.05;1.33;;;17.40;90.20;;;;;;6298735;22;20010;-78
2021/10/06 11:04:47;;;;;;;1.35;0.75;;;17.40;89.90;;;;;;6297409;22;20133;-77
2021/10/06 11:07:18;;;;;;;2.03;0.70;;;17.20;88.90;;;;;;6297108;22;20007;-77
2021/10/06 11:09:54;;;;;;;1.83;1.40;;;17.20;89.50;;;;;;6295870;22;20010;-78
2021/10/06 11:12:20;;;;;;;1.38;0.70;;;17.20;89.30;;;;;;6297331;22;20695;-80
2021/10/06 11:14:48;;;;;;;1.25;0.73;;;17.10;88.00;;;;;;6297013;22;20006;-77
2021/10/06 11:17:20;;;;;;;2.05;0.82;;;17.10;89.10;;;;;;6298003;22;20307;-77
2021/10/06 11:19:47;;;;;;;2.35;0.70;;;17.20;90.10;;;;;;6296166;22;20008;-77
2021/10/06 11:22:21;;;;;;;3.20;0.98;;;17.30;90.20;;;;;;6297145;22;20003;-77
2021/10/06 11:24:48;;;;;;;4.10;0.82;;;17.30;90.00;;;;;;6298357;22;20009;-77
2021/10/06 11:27:14;;;;;;;1.25;0.57;;;17.50;89.10;;;;;;6299118;22;20007;-77
2021/10/06 11:29:44;;;;;;;1.30;0.60;;;17.60;88.90;;;;;;6297223;22;20103;-77
2021/10/06 11:32:09;;;;;;;1.58;0.65;;;17.70;90.00;;;;;;6298946;22;20007;-76
2021/10/06 11:34:45;;;;;;;3.75;0.60;;;17.80;89.20;;;;;;6298957;22;19995;-77
2021/10/06 11:37:18;;;;;;;1.10;0.82;;;17.90;87.90;;;;;;6272029;22;20007;-77
2021/10/06 11:39:44;;;;;;;0.77;0.50;;;17.90;87.60;;;;;;6298700;22;20045;-78
2021/10/06 11:42:10;;;;;;;2.10;0.70;;;17.80;86.70;;;;;;6300330;22;20003;-78
2021/10/06 11:44:36;;;;;;;1.83;0.60;;;17.70;87.30;;;;;;6298793;22;20007;-77
2021/10/06 11:47:05;;;;;;;1.05;0.55;;;17.70;87.10;;;;;;6271633;22;20354;-78
2021/10/06 11:49:33;;;;;;;1.83;0.60;;;17.70;88.00;;;;;;6298782;22;20007;-78
2021/10/06 11:52:00;;;;;;;2.20;0.70;;;17.70;87.90;;;;;;6298199;22;20007;-77
2021/10/06 11:54:26;;;;;;;2.80;0.82;;;17.60;88.30;;;;;;6300857;22;20098;-78
2021/10/06 11:57:00;;;;;;;2.25;0.80;;;17.60;88.60;;;;;;6300822;22;20031;-77
2021/10/06 11:59:30;;;;;;;2.72;0.73;;;17.60;88.10;;;;;;6299206;22;20004;-76
2021/10/06 12:01:57;;;;;;;3.30;0.88;;;17.60;88.50;;;;;;6298470;22;20030;-78
2021/10/06 12:04:37;;;;;;;0.90;0.43;;;17.60;88.90;;;;;;6298871;22;20013;-76
2021/10/06 12:07:09;;;;;;;1.65;0.73;;;17.60;88.90;;;;;;6299188;22;20418;-76
2021/10/06 12:09:48;;;;;;;1.45;0.70;;;17.60;88.50;;;;;;6297268;22;20003;-78
2021/10/06 12:12:15;;;;;;;2.90;0.80;;;17.60;87.70;;;;;;6298819;22;20480;-77
2021/10/06 12:14:52;;;;;;;1.60;0.63;;;17.60;89.50;;;;;;6299433;22;20006;-76
2021/10/06 12:17:25;;;;;;;3.20;0.70;;;17.60;89.00;;;;;;6300728;22;19999;-77
2021/10/06 12:20:02;;;;;;;3.72;0.98;;;17.60;90.20;;;;;;6298352;22;20010;-77
2021/10/06 12:22:42;;;;;;;5.13;0.80;;;17.70;88.60;;;;;;6299868;22;20396;-77
2021/10/06 12:25:17;;;;;;;2.95;1.10;;;17.60;87.50;;;;;;6301107;22;19998;-77
2021/10/06 12:27:51;;;;;;;2.67;0.80;;;17.60;88.70;;;;;;6299826;22;20019;-77
2021/10/06 12:30:19;;;;;;;2.38;0.55;;;17.70;90.00;;;;;;6300649;22;20000;-77
2021/10/06 12:32:47;;;;;;;0.80;0.75;;;17.80;88.00;;;;;;6299829;22;20418;-76
2021/10/06 12:35:21;;;;;;;3.72;1.00;;;17.90;88.30;;;;;;6300112;22;20124;-77
2021/10/06 12:37:51;;;;;;;1.30;0.80;;;18.00;87.90;;;;;;6299726;22;20007;-77
2021/10/06 12:40:42;;;;;;;2.53;1.02;;;18.10;88.70;;;;;;6300235;22;20003;-76
2021/10/06 12:43:11;;;;;;;3.17;0.93;;;18.20;88.00;;;;;;6300392;22;20441;-76
2021/10/06 12:45:57;;;;;;;3.03;0.80;;;18.30;87.50;;;;;;6299750;22;20078;-77
2021/10/06 12:48:45;;;;;;;1.85;0.60;;;18.30;87.40;;;;;;6299997;22;20473;-76